Time;durP1;ratioP1;P1;durP2;ratioP2;P2;SDS_P1;SDS_P2;PMS_P1;PMS_P2;Temp;Humidity;BMP_temperature;BMP_pressure;BME280_temperature;BME280_humidity;BME280_pressure;Samples;Min_cycle;Max_cycle;Signal;HPM_P1;HPM_P2
2021/06/05 00:01:16;;;;;;;4.32;2.30;;;24.90;58.80;;;;;;5054888;28;20104;-58
2021/06/05 00:03:41;;;;;;;2.53;2.33;;;24.90;58.90;;;;;;5055181;28;20025;-57
2021/06/05 00:06:07;;;;;;;3.13;2.25;;;25.20;58.90;;;;;;5054684;28;20032;-58
2021/06/05 00:08:33;;;;;;;3.17;2.22;;;24.90;58.50;;;;;;5055082;28;20096;-57
2021/06/05 00:11:03;;;;;;;3.10;2.72;;;24.80;58.60;;;;;;5055029;28;20096;-57
2021/06/05 00:13:36;;;;;;;4.50;2.33;;;24.60;58.40;;;;;;5054927;28;20025;-58
2021/06/05 00:16:04;;;;;;;2.78;2.38;;;24.90;58.70;;;;;;5054594;28;20028;-58
2021/06/05 00:18:30;;;;;;;3.10;2.80;;;24.90;58.90;;;;;;5054620;28;20025;-58
2021/06/05 00:20:57;;;;;;;2.80;2.50;;;24.90;59.00;;;;;;5054947;28;20071;-58
2021/06/05 00:23:24;;;;;;;3.20;2.60;;;25.00;58.90;;;;;;5054643;28;20064;-58
2021/06/05 00:25:50;;;;;;;3.45;2.75;;;24.90;58.90;;;;;;5054365;28;20032;-57
2021/06/05 00:28:16;;;;;;;4.05;2.78;;;25.40;59.30;;;;;;5054399;28;20027;-58
2021/06/05 00:30:42;;;;;;;2.33;2.20;;;25.00;58.80;;;;;;5054340;28;20032;-57
2021/06/05 00:33:09;;;;;;;3.42;2.60;;;24.80;58.90;;;;;;5054447;28;20029;-57
2021/06/05 00:35:35;;;;;;;3.47;2.63;;;24.90;59.00;;;;;;5054539;28;20028;-58
2021/06/05 00:38:01;;;;;;;2.83;2.50;;;24.80;58.80;;;;;;5054530;28;20029;-58
2021/06/05 00:40:31;;;;;;;3.78;2.78;;;25.30;59.10;;;;;;5054238;28;20095;-58
2021/06/05 00:42:58;;;;;;;3.38;3.08;;;25.30;59.00;;;;;;5054163;28;20078;-58
2021/06/05 00:45:26;;;;;;;3.13;2.70;;;25.00;58.90;;;;;;5054270;28;20029;-59
2021/06/05 00:47:52;;;;;;;2.92;2.72;;;24.90;58.80;;;;;;5054230;28;20094;-58
2021/06/05 00:50:17;;;;;;;3.45;3.15;;;25.10;58.80;;;;;;5053989;28;20021;-58
2021/06/05 00:52:45;;;;;;;2.83;2.63;;;24.90;58.70;;;;;;5053977;28;20075;-58
2021/06/05 00:55:14;;;;;;;3.10;2.90;;;24.50;58.50;;;;;;5052888;28;20047;-57
2021/06/05 00:57:40;;;;;;;3.20;2.90;;;24.80;58.90;;;;;;5053920;28;20082;-57
2021/06/05 01:00:16;;;;;;;3.28;2.97;;;24.80;58.80;;;;;;5054022;28;20044;-57
2021/06/05 01:02:42;;;;;;;3.50;3.17;;;24.80;59.30;;;;;;5053830;28;20379;-58
2021/06/05 01:05:07;;;;;;;3.83;3.42;;;25.30;59.00;;;;;;5053722;28;20021;-58
2021/06/05 01:07:34;;;;;;;2.85;2.65;;;24.80;58.70;;;;;;5053957;28;20035;-57
2021/06/05 01:10:14;;;;;;;2.92;2.67;;;24.70;58.70;;;;;;5053655;28;20092;-58
2021/06/05 01:12:49;;;;;;;3.15;2.83;;;24.70;58.60;;;;;;5054023;28;20438;-58
2021/06/05 01:15:20;;;;;;;3.95;3.15;;;24.80;58.80;;;;;;5053550;28;20017;-57
2021/06/05 01:17:51;;;;;;;3.80;3.50;;;24.70;58.60;;;;;;5053993;28;20021;-58
2021/06/05 01:20:49;;;;;;;3.85;3.45;;;24.50;58.60;;;;;;5053559;28;20034;-58
2021/06/05 01:23:20;;;;;;;3.35;3.00;;;24.70;58.70;;;;;;5053699;28;20037;-58
2021/06/05 01:26:00;;;;;;;2.88;2.67;;;24.70;58.70;;;;;;5053189;28;20123;-58
2021/06/05 01:28:29;;;;;;;3.42;3.13;;;24.70;58.80;;;;;;5053226;28;20029;-58
2021/06/05 01:30:58;;;;;;;3.97;3.67;;;24.80;58.70;;;;;;5052018;28;20029;-57
2021/06/05 01:33:27;;;;;;;3.80;3.42;;;24.70;58.60;;;;;;5053015;28;20025;-58
2021/06/05 01:35:54;;;;;;;5.00;3.47;;;25.00;81.90;;;;;;5053136;28;20468;-57
2021/06/05 01:38:21;;;;;;;3.65;3.35;;;24.70;59.40;;;;;;5053011;28;20021;-58
2021/06/05 01:40:49;;;;;;;5.22;3.80;;;24.70;58.70;;;;;;5053206;28;20146;-58
2021/06/05 01:43:18;;;;;;;4.68;4.05;;;24.70;58.70;;;;;;5052727;28;20055;-57
2021/06/05 01:45:45;;;;;;;4.22;3.58;;;24.60;81.20;;;;;;5052691;28;20033;-58
2021/06/05 01:48:12;;;;;;;3.92;3.63;;;24.70;58.80;;;;;;5053135;28;20029;-58
2021/06/05 01:50:41;;;;;;;3.47;3.17;;;24.60;58.80;;;;;;5052811;28;20479;-58
2021/06/05 01:53:11;;;;;;;3.75;3.42;;;24.90;58.90;;;;;;5052941;28;20031;-58
2021/06/05 01:55:52;;;;;;;3.80;3.50;;;24.70;58.80;;;;;;5052768;28;20103;-58
2021/06/05 01:58:23;;;;;;;4.22;3.30;;;24.60;58.80;;;;;;5052716;28;20147;-58
2021/06/05 02:00:51;;;;;;;4.00;3.63;;;25.10;59.00;;;;;;5052700;28;20112;-58
2021/06/05 02:03:17;;;;;;;3.97;3.63;;;24.70;72.20;;;;;;5052807;28;20028;-58
2021/06/05 02:05:44;;;;;;;4.32;3.92;;;25.10;59.10;;;;;;5052144;28;20071;-58
2021/06/05 02:08:13;;;;;;;4.30;3.90;;;24.60;58.80;;;;;;5052509;28;20044;-58
2021/06/05 02:10:39;;;;;;;4.35;3.95;;;24.40;58.60;;;;;;5052760;28;20045;-58
2021/06/05 02:13:09;;;;;;;4.45;4.05;;;24.60;58.80;;;;;;5052552;28;20472;-58
2021/06/05 02:15:37;;;;;;;3.90;3.50;;;24.60;58.80;;;;;;5052509;28;20036;-57
2021/06/05 02:18:08;;;;;;;3.58;3.28;;;24.60;58.70;;;;;;5052701;28;20029;-57
2021/06/05 02:20:43;;;;;;;4.18;3.78;;;24.60;58.80;;;;;;5052865;28;20021;-58
2021/06/05 02:23:15;;;;;;;3.40;3.10;;;24.60;58.80;;;;;;5052824;28;20024;-58
2021/06/05 02:25:41;;;;;;;4.07;3.67;;;24.60;58.80;;;;;;5052214;28;20032;-58
2021/06/05 02:28:07;;;;;;;4.38;3.90;;;24.90;59.00;;;;;;5052618;28;20033;-58
2021/06/05 02:30:33;;;;;;;4.03;3.72;;;24.90;59.00;;;;;;5052647;28;20029;-57
2021/06/05 02:33:00;;;;;;;4.43;4.05;;;24.50;58.70;;;;;;5052382;28;20021;-58
2021/06/05 02:35:30;;;;;;;4.20;3.80;;;24.60;58.80;;;;;;5052558;28;20437;-58
2021/06/05 02:37:56;;;;;;;3.90;3.60;;;24.40;58.70;;;;;;5052627;28;20017;-58
2021/06/05 02:40:24;;;;;;;4.15;3.75;;;24.50;58.80;;;;;;5050955;28;20025;-57
2021/06/05 02:42:50;;;;;;;4.40;4.00;;;24.50;58.80;;;;;;5052496;28;20013;-59
2021/06/05 02:45:24;;;;;;;4.60;3.78;;;24.80;59.00;;;;;;5051114;28;20029;-59
2021/06/05 02:48:00;;;;;;;4.90;4.40;;;24.90;59.00;;;;;;5052487;28;20123;-58
2021/06/05 02:50:36;;;;;;;4.68;4.07;;;24.50;58.70;;;;;;5051957;28;20060;-59
2021/06/05 02:53:03;;;;;;;4.70;4.30;;;24.50;58.80;;;;;;5052045;28;20497;-59
2021/06/05 02:55:30;;;;;;;3.83;3.53;;;24.50;58.80;;;;;;5052019;28;20048;-59
2021/06/05 02:57:55;;;;;;;3.58;3.28;;;24.50;58.80;;;;;;5052182;28;20025;-58
2021/06/05 03:00:24;;;;;;;4.05;3.70;;;24.50;58.80;;;;;;5052290;28;20025;-58
2021/06/05 03:02:49;;;;;;;4.18;3.78;;;24.50;58.70;;;;;;5052147;28;20029;-58
2021/06/05 03:05:15;;;;;;;6.35;4.03;;;24.50;58.80;;;;;;5052315;28;20032;-59
2021/06/05 03:07:41;;;;;;;4.70;4.30;;;24.50;58.90;;;;;;5052234;28;20037;-59
2021/06/05 03:10:08;;;;;;;5.53;4.22;;;24.40;59.00;;;;;;5052113;28;20033;-59
2021/06/05 03:12:34;;;;;;;4.40;4.00;;;24.50;59.10;;;;;;5051763;28;20539;-59
2021/06/05 03:15:00;;;;;;;5.07;4.28;;;24.40;59.00;;;;;;5050973;28;20116;-59
2021/06/05 03:17:28;;;;;;;5.43;4.93;;;24.40;59.00;;;;;;5052167;28;20025;-58
2021/06/05 03:19:54;;;;;;;5.13;4.22;;;24.50;59.10;;;;;;5055687;28;20021;-59
2021/06/05 03:22:20;;;;;;;4.07;3.78;;;24.40;59.10;;;;;;5055667;28;20025;-59
2021/06/05 03:24:46;;;;;;;5.80;4.85;;;24.60;59.30;;;;;;5054298;28;20025;-58
2021/06/05 03:27:11;;;;;;;5.53;5.03;;;24.40;59.20;;;;;;5055454;28;20460;-59
2021/06/05 03:29:38;;;;;;;6.65;5.32;;;24.50;59.30;;;;;;5055697;28;20017;-60
2021/06/05 03:32:05;;;;;;;4.75;4.25;;;24.40;59.20;;;;;;5055726;28;20033;-59
2021/06/05 03:34:30;;;;;;;6.95;4.43;;;24.40;59.20;;;;;;5055711;28;20072;-59
2021/06/05 03:36:56;;;;;;;4.95;4.43;;;24.50;81.90;;;;;;5055234;28;20056;-59
2021/06/05 03:39:22;;;;;;;4.50;4.10;;;24.80;59.50;;;;;;5055240;28;20029;-59
2021/06/05 03:41:48;;;;;;;4.82;4.40;;;24.30;59.20;;;;;;5055577;28;20436;-59
2021/06/05 03:44:13;;;;;;;4.85;4.25;;;24.30;59.30;;;;;;5055235;28;20049;-59
2021/06/05 03:46:39;;;;;;;5.55;5.03;;;24.30;59.30;;;;;;5055229;28;20029;-59
2021/06/05 03:49:05;;;;;;;4.80;4.35;;;24.30;59.30;;;;;;5054991;28;20411;-58
2021/06/05 03:51:31;;;;;;;5.20;3.58;;;24.40;59.40;;;;;;5055098;28;20043;-59
2021/06/05 03:53:57;;;;;;;4.25;3.70;;;24.10;59.20;;;;;;5055284;28;20025;-58
2021/06/05 03:56:22;;;;;;;5.10;4.53;;;24.70;59.50;;;;;;5054817;28;20405;-58
2021/06/05 03:58:49;;;;;;;6.15;4.28;;;24.80;59.50;;;;;;5055257;28;20025;-58
2021/06/05 04:01:21;;;;;;;7.65;5.10;;;24.60;59.40;;;;;;5055117;28;20024;-59
2021/06/05 04:03:47;;;;;;;4.50;4.10;;;24.40;59.30;;;;;;5054822;28;20067;-58
2021/06/05 04:06:14;;;;;;;4.20;3.90;;;;;;;;;;5054933;28;20029;-58
2021/06/05 04:08:40;;;;;;;5.05;3.90;;;24.30;58.70;;;;;;5054993;28;20107;-58
2021/06/05 04:11:07;;;;;;;8.25;5.43;;;24.30;59.20;;;;;;5055037;28;20048;-58
2021/06/05 04:13:33;;;;;;;6.55;5.75;;;24.30;59.20;;;;;;5053433;28;20018;-58
2021/06/05 04:15:58;;;;;;;5.47;4.93;;;24.20;59.30;;;;;;5054724;28;20028;-58
2021/06/05 04:18:30;;;;;;;5.40;4.88;;;24.30;59.30;;;;;;5053396;28;20353;-58
2021/06/05 04:20:56;;;;;;;6.50;5.68;;;24.40;59.40;;;;;;5053161;28;20441;-58
2021/06/05 04:23:22;;;;;;;5.28;4.78;;;24.30;59.30;;;;;;5053333;28;20021;-58
2021/06/05 04:25:48;;;;;;;5.43;4.63;;;24.10;59.30;;;;;;5054252;28;20047;-59
2021/06/05 04:28:16;;;;;;;6.35;5.03;;;24.30;59.30;;;;;;5054384;28;20021;-58
2021/06/05 04:30:42;;;;;;;5.78;5.07;;;24.20;59.30;;;;;;5054392;28;20043;-58
2021/06/05 04:33:10;;;;;;;6.15;5.55;;;24.70;59.50;;;;;;5054278;28;20029;-58
2021/06/05 04:35:37;;;;;;;5.97;5.38;;;24.20;59.30;;;;;;5054591;28;20021;-58
2021/06/05 04:38:04;;;;;;;6.05;5.13;;;24.20;59.30;;;;;;5054437;28;20048;-58
2021/06/05 04:40:30;;;;;;;5.18;4.70;;;24.10;59.20;;;;;;5054394;28;20024;-58
2021/06/05 04:42:56;;;;;;;5.20;4.70;;;24.60;60.10;;;;;;5054366;28;20040;-58
2021/06/05 04:45:22;;;;;;;5.30;4.80;;;24.50;59.40;;;;;;5054235;28;20016;-57
2021/06/05 04:47:48;;;;;;;5.20;4.70;;;24.20;59.30;;;;;;5052691;28;20029;-58
2021/06/05 04:50:18;;;;;;;5.57;5.07;;;24.20;59.30;;;;;;5052634;28;20021;-59
2021/06/05 04:52:44;;;;;;;6.07;4.97;;;;;;;;;;5053994;28;20108;-58
2021/06/05 04:55:10;;;;;;;5.45;4.95;;;24.20;58.70;;;;;;5053626;28;20755;-58
2021/06/05 04:57:36;;;;;;;5.35;4.82;;;24.10;59.20;;;;;;5053761;28;20047;-59
2021/06/05 05:00:06;;;;;;;5.95;4.97;;;24.10;59.30;;;;;;5054108;28;20025;-58
2021/06/05 05:02:31;;;;;;;5.05;4.55;;;24.10;59.20;;;;;;5053625;28;20108;-58
2021/06/05 05:04:57;;;;;;;8.32;4.60;;;24.20;59.30;;;;;;5053889;28;20060;-58
2021/06/05 05:07:22;;;;;;;5.20;4.45;;;23.90;59.10;;;;;;5053644;28;20071;-59
2021/06/05 05:09:48;;;;;;;5.60;5.03;;;24.10;59.30;;;;;;5053867;28;20025;-58
2021/06/05 05:12:14;;;;;;;5.63;4.60;;;24.30;59.40;;;;;;5053785;28;20029;-59
2021/06/05 05:14:39;;;;;;;5.53;5.03;;;24.20;59.30;;;;;;5053527;28;20464;-59
2021/06/05 05:17:06;;;;;;;5.13;4.63;;;24.40;59.40;;;;;;5053309;28;20017;-59
2021/06/05 05:19:32;;;;;;;5.07;4.47;;;24.10;59.30;;;;;;5053693;28;20032;-59
2021/06/05 05:21:58;;;;;;;4.60;4.20;;;24.70;59.60;;;;;;5053360;28;20017;-58
2021/06/05 05:24:24;;;;;;;5.25;3.88;;;24.10;59.20;;;;;;5053613;28;20020;-59
2021/06/05 05:26:50;;;;;;;4.30;3.90;;;24.30;59.30;;;;;;5053158;28;20033;-58
2021/06/05 05:29:16;;;;;;;5.05;4.65;;;24.30;59.30;;;;;;5053527;28;20032;-58
2021/06/05 05:31:42;;;;;;;4.43;4.03;;;24.10;59.30;;;;;;5053152;28;20023;-59
2021/06/05 05:34:08;;;;;;;5.38;4.88;;;24.40;59.40;;;;;;5053376;28;20459;-59
2021/06/05 05:36:37;;;;;;;6.20;4.25;;;24.50;59.40;;;;;;5053361;28;20484;-58
2021/06/05 05:39:10;;;;;;;5.13;4.10;;;24.40;59.30;;;;;;5053399;28;20021;-58
2021/06/05 05:41:37;;;;;;;4.25;3.85;;;24.10;59.20;;;;;;5052656;28;20017;-59
2021/06/05 05:44:03;;;;;;;5.13;4.03;;;24.30;59.40;;;;;;5052934;28;20048;-60
2021/06/05 05:46:29;;;;;;;3.88;3.58;;;24.10;59.20;;;;;;5052982;28;20112;-60
2021/06/05 05:48:55;;;;;;;5.55;3.90;;;24.10;59.20;;;;;;5053177;28;20017;-59
2021/06/05 05:51:23;;;;;;;4.45;4.07;;;24.50;59.50;;;;;;5051582;28;20024;-59
2021/06/05 05:53:50;;;;;;;4.82;4.20;;;24.20;59.30;;;;;;5052846;28;20107;-60
2021/06/05 05:56:17;;;;;;;4.97;4.50;;;23.80;59.30;;;;;;5052447;28;20510;-60
2021/06/05 05:58:47;;;;;;;4.70;4.30;;;23.90;59.20;;;;;;5052730;28;20021;-60
2021/06/05 06:01:14;;;;;;;5.10;3.73;;;24.10;59.30;;;;;;5053043;28;20020;-60
2021/06/05 06:03:39;;;;;;;4.40;4.00;;;24.10;59.40;;;;;;5052654;28;20283;-60
2021/06/05 06:06:06;;;;;;;4.47;4.07;;;24.00;59.50;;;;;;5052645;28;20036;-60
2021/06/05 06:08:33;;;;;;;4.45;4.13;;;24.40;59.70;;;;;;5051149;28;20021;-60
2021/06/05 06:10:58;;;;;;;4.18;3.78;;;24.10;59.60;;;;;;5052913;28;20079;-60
2021/06/05 06:13:24;;;;;;;3.60;3.35;;;24.00;59.50;;;;;;5052908;28;20431;-60
2021/06/05 06:15:49;;;;;;;4.20;3.80;;;24.10;59.50;;;;;;5052738;28;20021;-60
2021/06/05 06:18:16;;;;;;;7.20;4.15;;;24.30;59.60;;;;;;5052729;28;20481;-60
2021/06/05 06:20:51;;;;;;;4.22;3.85;;;24.00;59.50;;;;;;5052382;28;20025;-60
2021/06/05 06:23:22;;;;;;;4.20;3.80;;;24.50;59.80;;;;;;5052658;28;20430;-60
2021/06/05 06:25:50;;;;;;;;;;;24.20;59.60;;;;;;5052826;28;20476;-61
2021/06/05 06:28:18;;;;;;;3.80;3.50;;;23.90;59.50;;;;;;5052702;28;19927;-60
2021/06/05 06:30:44;;;;;;;4.22;3.83;;;23.90;59.50;;;;;;5052369;28;20017;-60
2021/06/05 06:33:11;;;;;;;5.18;3.47;;;24.00;59.60;;;;;;5052363;28;20104;-60
2021/06/05 06:35:38;;;;;;;3.70;3.40;;;23.90;59.50;;;;;;5052538;28;20025;-60
2021/06/05 06:38:06;;;;;;;3.67;3.17;;;24.10;59.60;;;;;;5052593;28;20104;-60
2021/06/05 06:40:34;;;;;;;3.60;3.30;;;23.70;59.50;;;;;;5052312;28;20017;-60
2021/06/05 06:43:02;;;;;;;3.65;3.25;;;23.90;59.50;;;;;;5052628;28;20112;-60
2021/06/05 06:45:29;;;;;;;3.33;3.03;;;24.00;82.50;;;;;;5052204;28;20017;-61
2021/06/05 06:47:56;;;;;;;3.10;2.90;;;23.90;59.50;;;;;;5052221;28;20037;-60
2021/06/05 06:50:26;;;;;;;3.25;2.60;;;23.90;59.50;;;;;;5050933;28;20028;-58
2021/06/05 06:52:51;;;;;;;2.90;2.70;;;24.00;59.40;;;;;;5053346;28;20111;-59
2021/06/05 06:55:19;;;;;;;3.15;2.85;;;23.90;59.30;;;;;;5055863;28;20118;-56
2021/06/05 06:57:45;;;;;;;3.03;2.63;;;23.90;59.30;;;;;;5056396;28;20029;-57
2021/06/05 07:00:15;;;;;;;2.95;2.75;;;23.90;59.30;;;;;;5055954;28;20047;-59
2021/06/05 07:02:40;;;;;;;3.15;2.88;;;23.90;59.40;;;;;;5055775;28;20074;-58
2021/06/05 07:05:07;;;;;;;3.05;2.85;;;24.00;59.30;;;;;;5056147;28;20033;-58
2021/06/05 07:07:32;;;;;;;2.92;2.45;;;23.90;59.40;;;;;;5055930;28;20606;-58
2021/06/05 07:09:59;;;;;;;2.67;2.47;;;23.60;59.10;;;;;;5055744;28;20337;-58
2021/06/05 07:12:25;;;;;;;3.63;2.13;;;23.90;59.20;;;;;;5055872;28;20033;-58
2021/06/05 07:14:51;;;;;;;2.30;2.20;;;23.90;59.10;;;;;;5055703;28;20472;-57
2021/06/05 07:17:17;;;;;;;2.53;2.38;;;23.90;59.20;;;;;;5055775;28;20104;-58
2021/06/05 07:19:43;;;;;;;2.50;2.30;;;23.90;59.00;;;;;;5055884;28;20025;-57
2021/06/05 07:22:09;;;;;;;2.20;2.10;;;23.70;59.00;;;;;;5054576;28;20486;-58
2021/06/05 07:24:35;;;;;;;2.40;2.20;;;23.90;59.10;;;;;;5053977;28;20108;-58
2021/06/05 07:27:01;;;;;;;2.42;2.22;;;23.90;59.00;;;;;;5054242;28;20119;-59
2021/06/05 07:29:26;;;;;;;2.35;2.25;;;23.90;59.10;;;;;;5055450;28;20028;-59
2021/06/05 07:31:53;;;;;;;2.80;2.60;;;23.90;58.90;;;;;;5055390;28;20035;-59
2021/06/05 07:34:24;;;;;;;3.08;2.42;;;23.90;59.60;;;;;;5055702;28;20356;-58
2021/06/05 07:36:55;;;;;;;3.38;2.35;;;24.30;59.10;;;;;;5055515;28;20033;-59
2021/06/05 07:39:25;;;;;;;4.05;2.38;;;24.20;59.00;;;;;;5055122;28;20017;-59
2021/06/05 07:41:51;;;;;;;;;;;23.90;58.80;;;;;;5055846;28;20021;-59
2021/06/05 07:44:19;;;;;;;3.92;3.10;;;23.70;58.50;;;;;;5055688;28;20324;-58
2021/06/05 07:46:53;;;;;;;4.88;3.42;;;24.10;58.40;;;;;;5055009;28;20048;-58
2021/06/05 07:49:19;;;;;;;4.68;3.58;;;23.90;58.00;;;;;;5055229;28;20104;-59
2021/06/05 07:51:45;;;;;;;5.78;3.90;;;24.30;57.90;;;;;;5055252;28;20025;-60
2021/06/05 07:54:11;;;;;;;6.60;3.50;;;23.80;57.60;;;;;;5055168;28;20360;-60
2021/06/05 07:56:37;;;;;;;4.13;3.72;;;24.10;57.80;;;;;;5053378;28;20377;-61
2021/06/05 07:59:03;;;;;;;4.72;3.92;;;23.80;57.60;;;;;;5055020;28;20357;-61
2021/06/05 08:01:29;;;;;;;5.43;4.55;;;23.80;57.40;;;;;;5055226;28;20021;-61
2021/06/05 08:03:55;;;;;;;6.22;4.10;;;23.80;57.40;;;;;;5054594;28;20048;-60
2021/06/05 08:06:20;;;;;;;7.38;4.40;;;23.80;57.40;;;;;;5055124;28;20029;-61
2021/06/05 08:08:48;;;;;;;6.57;4.70;;;23.90;57.50;;;;;;5054825;28;20055;-61
2021/06/05 08:11:14;;;;;;;5.13;3.78;;;24.20;57.60;;;;;;5053293;28;20108;-60
2021/06/05 08:13:40;;;;;;;4.22;3.60;;;23.80;57.40;;;;;;5054675;28;20029;-60
2021/06/05 08:16:06;;;;;;;5.32;4.28;;;23.70;57.30;;;;;;5054481;28;20453;-61
2021/06/05 08:18:32;;;;;;;4.40;3.78;;;23.90;57.30;;;;;;5054621;28;20090;-60
2021/06/05 08:21:03;;;;;;;5.43;4.40;;;23.70;57.10;;;;;;5054627;28;20427;-60
2021/06/05 08:23:31;;;;;;;4.15;3.45;;;23.70;57.10;;;;;;5054507;28;20075;-61
2021/06/05 08:25:58;;;;;;;5.00;3.00;;;23.70;57.20;;;;;;5054679;28;20017;-60
2021/06/05 08:28:24;;;;;;;5.50;3.38;;;23.90;57.30;;;;;;5054649;28;20032;-60
2021/06/05 08:30:53;;;;;;;5.43;3.83;;;23.60;57.20;;;;;;5054712;28;20044;-60
2021/06/05 08:33:19;;;;;;;3.78;2.95;;;23.70;57.10;;;;;;5054552;28;20066;-60
2021/06/05 08:35:45;;;;;;;3.85;3.30;;;23.70;57.10;;;;;;5054416;28;20444;-60
2021/06/05 08:38:16;;;;;;;2.88;2.58;;;23.80;57.40;;;;;;5054514;28;20025;-60
2021/06/05 08:40:49;;;;;;;4.18;3.13;;;23.60;57.20;;;;;;5054178;28;20085;-61
2021/06/05 08:43:23;;;;;;;3.97;3.15;;;23.60;57.00;;;;;;5054170;28;20062;-61
2021/06/05 08:45:48;;;;;;;4.57;3.00;;;23.60;57.00;;;;;;5053853;28;20040;-60
2021/06/05 08:48:17;;;;;;;3.58;2.90;;;24.10;57.20;;;;;;5054215;28;20029;-60
2021/06/05 08:50:42;;;;;;;6.32;3.20;;;23.60;57.00;;;;;;5054016;28;20021;-60
2021/06/05 08:53:25;;;;;;;3.65;3.08;;;23.60;57.00;;;;;;5054132;28;20032;-60
2021/06/05 08:55:59;;;;;;;4.55;2.97;;;23.60;57.00;;;;;;5053792;28;20049;-60
2021/06/05 08:58:46;;;;;;;3.40;2.50;;;23.60;56.90;;;;;;5053967;28;20074;-60
2021/06/05 09:01:36;;;;;;;4.25;2.80;;;23.60;56.90;;;;;;5053695;28;20033;-60
2021/06/05 09:04:13;;;;;;;3.20;2.72;;;23.50;56.80;;;;;;5054104;28;20028;-61
2021/06/05 09:06:53;;;;;;;2.40;2.20;;;23.50;56.80;;;;;;5053895;28;20418;-61
2021/06/05 09:09:29;;;;;;;2.50;2.30;;;23.50;56.80;;;;;;5052280;28;20436;-61
2021/06/05 09:11:55;;;;;;;2.50;2.30;;;23.50;56.70;;;;;;5053933;28;20025;-61
2021/06/05 09:14:23;;;;;;;3.20;2.33;;;24.00;57.00;;;;;;5053815;28;20066;-61
2021/06/05 09:16:51;;;;;;;3.47;2.28;;;23.40;56.70;;;;;;5052402;28;20028;-61
2021/06/05 09:19:27;;;;;;;2.97;2.70;;;23.20;56.60;;;;;;5053752;28;20455;-61
2021/06/05 09:22:05;;;;;;;2.60;2.38;;;23.50;56.60;;;;;;5053440;28;20495;-60
2021/06/05 09:24:39;;;;;;;3.13;2.50;;;23.50;56.70;;;;;;5053429;28;20108;-60
2021/06/05 09:27:18;;;;;;;3.08;2.67;;;23.50;56.80;;;;;;5053274;28;20041;-60
2021/06/05 09:29:50;;;;;;;3.03;2.72;;;23.50;56.80;;;;;;5053206;28;20511;-61
2021/06/05 09:32:25;;;;;;;3.05;2.70;;;23.50;56.80;;;;;;5053238;28;20021;-60
2021/06/05 09:34:56;;;;;;;5.22;3.08;;;23.50;56.90;;;;;;5053254;28;20391;-61
2021/06/05 09:37:29;;;;;;;3.15;2.85;;;23.70;57.00;;;;;;5053275;28;20028;-60
2021/06/05 09:40:07;;;;;;;2.75;2.42;;;23.50;57.00;;;;;;5053491;28;20375;-60
2021/06/05 09:42:42;;;;;;;3.90;2.78;;;23.50;57.10;;;;;;5053350;28;20104;-60
2021/06/05 09:45:41;;;;;;;3.00;2.30;;;23.70;57.20;;;;;;5052911;28;20029;-60
2021/06/05 09:48:38;;;;;;;2.85;2.47;;;23.30;57.10;;;;;;5053256;28;20044;-60
2021/06/05 09:51:29;;;;;;;3.22;2.70;;;23.40;57.20;;;;;;5052662;28;20041;-61
2021/06/05 09:54:03;;;;;;;4.15;2.40;;;23.50;57.20;;;;;;5051670;28;20025;-60
2021/06/05 09:56:41;;;;;;;3.70;2.58;;;23.50;57.30;;;;;;5052734;28;20041;-60
2021/06/05 09:59:15;;;;;;;4.00;2.75;;;24.10;57.60;;;;;;5052902;28;20039;-61
2021/06/05 10:01:54;;;;;;;5.10;2.67;;;23.50;57.20;;;;;;5053065;28;20055;-60
2021/06/05 10:04:21;;;;;;;2.80;2.47;;;23.50;57.20;;;;;;5053154;28;20021;-60
2021/06/05 10:06:53;;;;;;;2.35;2.15;;;23.30;57.10;;;;;;5052612;28;20044;-61
2021/06/05 10:09:24;;;;;;;4.40;1.98;;;23.50;57.20;;;;;;5052721;28;20109;-60
2021/06/05 10:11:53;;;;;;;9.00;2.90;;;23.50;57.10;;;;;;5052669;28;20021;-61
2021/06/05 10:14:46;;;;;;;2.50;2.30;;;23.60;57.30;;;;;;5052925;28;20056;-61
2021/06/05 10:17:25;;;;;;;2.53;2.33;;;23.50;57.20;;;;;;5028801;28;20488;-61
2021/06/05 10:20:03;;;;;;;2.28;1.98;;;23.50;57.10;;;;;;5052546;28;20028;-60
2021/06/05 10:22:30;;;;;;;3.70;2.80;;;23.50;57.20;;;;;;5052767;28;20017;-61
2021/06/05 10:25:04;;;;;;;5.35;3.70;;;23.90;57.50;;;;;;5052345;28;20052;-60
2021/06/05 10:27:40;;;;;;;3.97;3.28;;;24.00;57.50;;;;;;5052455;28;20048;-60
2021/06/05 10:30:29;;;;;;;3.45;3.15;;;23.50;57.20;;;;;;5052414;28;20021;-60
2021/06/05 10:32:59;;;;;;;3.97;3.25;;;23.50;57.20;;;;;;5051706;28;20028;-60
2021/06/05 10:35:33;;;;;;;5.20;4.05;;;23.80;57.40;;;;;;5052364;28;20028;-60
2021/06/05 10:38:17;;;;;;;7.03;4.43;;;23.60;57.30;;;;;;5052212;28;20013;-60
2021/06/05 10:40:43;;;;;;;4.65;3.20;;;23.60;57.30;;;;;;5052511;28;20025;-60
2021/06/05 10:43:15;;;;;;;7.10;3.20;;;23.90;57.50;;;;;;5052521;28;20083;-60
2021/06/05 10:45:42;;;;;;;4.85;2.70;;;23.60;57.30;;;;;;5052127;28;20033;-60
2021/06/05 10:48:14;;;;;;;5.78;3.42;;;23.60;57.30;;;;;;5052278;28;20112;-60
2021/06/05 10:51:03;;;;;;;3.47;2.53;;;23.60;57.20;;;;;;5050968;28;20033;-61
2021/06/05 10:53:36;;;;;;;3.70;2.78;;;23.70;57.20;;;;;;5052056;28;20032;-61
2021/06/05 10:56:11;;;;;;;3.97;2.42;;;24.30;57.50;;;;;;5051957;28;20407;-61
2021/06/05 10:58:36;;;;;;;3.45;2.95;;;23.70;57.10;;;;;;5050680;28;20528;-61
2021/06/05 11:01:09;;;;;;;3.72;2.72;;;23.60;57.10;;;;;;5052195;28;20113;-60
2021/06/05 11:03:38;;;;;;;4.75;2.83;;;23.80;57.20;;;;;;5052278;28;20413;-60
2021/06/05 11:06:11;;;;;;;8.32;2.92;;;23.80;57.10;;;;;;5051929;28;20291;-60
2021/06/05 11:08:36;;;;;;;2.92;2.30;;;23.80;57.10;;;;;;5052484;28;20071;-61
2021/06/05 11:11:08;;;;;;;4.43;2.40;;;23.60;57.10;;;;;;5051625;28;20017;-60
2021/06/05 11:13:37;;;;;;;5.68;2.40;;;23.80;57.10;;;;;;5052299;28;20025;-60
2021/06/05 11:16:10;;;;;;;5.50;2.33;;;23.90;57.20;;;;;;5052192;28;20094;-60
2021/06/05 11:18:44;;;;;;;3.50;2.50;;;23.90;57.20;;;;;;5052062;28;20079;-60
2021/06/05 11:21:18;;;;;;;2.58;2.35;;;24.00;57.20;;;;;;5051963;28;20060;-60
2021/06/05 11:24:04;;;;;;;2.55;2.35;;;24.00;57.20;;;;;;5051846;28;20115;-60
2021/06/05 11:26:39;;;;;;;3.65;2.33;;;24.50;57.60;;;;;;5051515;28;20040;-58
2021/06/05 11:29:19;;;;;;;3.45;2.50;;;24.20;57.50;;;;;;5052485;28;20033;-61
2021/06/05 11:31:49;;;;;;;4.63;2.75;;;24.10;57.80;;;;;;5051814;28;20424;-59
2021/06/05 11:34:33;;;;;;;;;;;24.10;58.40;;;;;;5052319;28;20025;-60
2021/06/05 11:37:14;;;;;;;3.58;2.92;;;24.10;59.30;;;;;;5052205;28;20010;-60
2021/06/05 11:39:48;;;;;;;3.58;2.95;;;24.60;59.50;;;;;;5053964;28;20060;-60
2021/06/05 11:42:17;;;;;;;4.47;3.10;;;24.10;59.20;;;;;;5055657;28;20021;-60
2021/06/05 11:44:45;;;;;;;4.05;3.03;;;24.10;59.20;;;;;;5055348;28;20067;-60
2021/06/05 11:47:17;;;;;;;10.65;7.88;;;24.50;59.20;;;;;;5055288;28;20032;-60
2021/06/05 11:49:48;;;;;;;8.27;6.72;;;24.00;57.50;;;;;;5054925;28;20460;-60
2021/06/05 11:52:26;;;;;;;15.52;9.73;;;23.90;57.70;;;;;;5055098;28;20031;-60
2021/06/05 11:55:27;;;;;;;8.77;7.10;;;24.00;83.70;;;;;;5053678;28;20116;-60
2021/06/05 11:57:52;;;;;;;9.00;6.65;;;23.60;58.80;;;;;;5051950;28;20069;-60
2021/06/05 12:00:20;;;;;;;8.80;6.07;;;23.60;58.70;;;;;;5055266;28;20057;-60
2021/06/05 12:02:55;;;;;;;7.55;5.65;;;23.70;58.60;;;;;;5054949;28;20021;-60
2021/06/05 12:05:33;;;;;;;7.57;5.55;;;23.80;58.50;;;;;;5054846;28;20029;-60
2021/06/05 12:07:59;;;;;;;12.23;5.68;;;23.60;58.30;;;;;;5055059;28;20048;-60
2021/06/05 12:10:40;;;;;;;11.15;5.80;;;23.60;58.00;;;;;;5054670;28;20017;-60
2021/06/05 12:13:17;;;;;;;9.10;5.97;;;23.80;58.00;;;;;;5054684;28;20037;-61
2021/06/05 12:15:43;;;;;;;8.38;5.38;;;23.80;57.90;;;;;;5054670;28;20048;-60
2021/06/05 12:18:25;;;;;;;8.50;5.57;;;23.80;57.90;;;;;;5054962;28;20045;-60
2021/06/05 12:20:59;;;;;;;7.90;5.68;;;23.90;58.00;;;;;;5054628;28;20486;-61
2021/06/05 12:23:33;;;;;;;7.28;5.60;;;23.90;58.00;;;;;;5054851;28;20032;-61
2021/06/05 12:26:13;;;;;;;9.45;5.10;;;23.90;58.00;;;;;;5054482;28;20064;-61
2021/06/05 12:28:41;;;;;;;7.60;5.70;;;24.00;58.00;;;;;;5053311;28;20033;-61
2021/06/05 12:31:31;;;;;;;7.82;5.88;;;24.40;58.00;;;;;;5054501;28;20385;-62
2021/06/05 12:34:07;;;;;;;6.68;5.05;;;24.10;57.90;;;;;;5047112;28;20047;-63
2021/06/05 12:36:40;;;;;;;6.55;5.40;;;24.10;57.60;;;;;;5054349;28;20143;-62
2021/06/05 12:39:22;;;;;;;5.82;5.22;;;24.10;57.40;;;;;;5054662;28;20059;-61
2021/06/05 12:41:50;;;;;;;7.00;5.32;;;24.30;57.40;;;;;;5054549;28;20025;-59
2021/06/05 12:44:24;;;;;;;9.02;6.15;;;24.30;57.20;;;;;;5054606;28;20017;-61
2021/06/05 12:46:50;;;;;;;10.02;6.13;;;24.90;58.20;;;;;;5054095;28;20029;-61
2021/06/05 12:49:21;;;;;;;8.80;6.40;;;24.50;57.90;;;;;;5054478;28;20100;-61
2021/06/05 12:51:50;;;;;;;6.10;5.22;;;24.30;57.70;;;;;;5054422;28;20031;-60
2021/06/05 12:54:32;;;;;;;5.80;5.28;;;24.50;57.20;;;;;;5052786;28;20528;-60
2021/06/05 12:57:18;;;;;;;6.68;5.50;;;25.10;57.30;;;;;;5052638;28;20056;-60
2021/06/05 12:59:44;;;;;;;11.30;5.60;;;24.60;56.70;;;;;;5054022;28;20021;-60
2021/06/05 13:02:25;;;;;;;7.78;4.82;;;25.10;57.00;;;;;;5053955;28;20395;-61